createdAt,value
2023-07-17T05:40:45.960Z,1.77
2023-07-17T05:45:49.347Z,1.80
2023-07-17T05:50:53.021Z,1.98
2023-07-17T05:55:57.922Z,2.10
2023-07-17T06:01:01.456Z,2.08
2023-07-17T06:06:08.213Z,2.10
2023-07-17T06:11:14.829Z,2.00
2023-07-17T06:16:19.663Z,2.30
2023-07-17T06:21:24.156Z,2.17
2023-07-17T06:26:28.864Z,1.70
2023-07-17T06:31:32.369Z,2.15
2023-07-17T06:36:35.772Z,1.90
2023-07-17T06:41:40.523Z,1.63
2023-07-17T06:46:44.926Z,1.60
2023-07-17T06:51:49.963Z,1.60
2023-07-17T06:56:54.889Z,1.88
2023-07-17T07:01:59.084Z,1.65
2023-07-17T07:07:02.713Z,1.70
2023-07-17T07:12:13.979Z,1.67
2023-07-17T07:17:18.356Z,2.00
2023-07-17T07:22:23.092Z,2.22
2023-07-17T07:27:32.438Z,1.90
2023-07-17T07:32:38.178Z,2.20
2023-07-17T07:37:42.508Z,2.42
2023-07-17T07:42:47.688Z,2.95
2023-07-17T07:47:51.155Z,2.60
2023-07-17T07:52:56.546Z,2.55
2023-07-17T07:58:01.409Z,2.60
2023-07-17T08:03:06.708Z,2.90
2023-07-17T08:08:10.203Z,2.67
2023-07-17T08:13:15.082Z,3.00
2023-07-17T08:18:30.894Z,2.60
2023-07-17T08:23:34.258Z,2.55
2023-07-17T08:28:39.149Z,2.40
2023-07-17T08:33:42.552Z,2.35
2023-07-17T08:38:45.972Z,2.80
2023-07-17T08:43:51.461Z,2.60
2023-07-17T08:48:56.600Z,3.00
2023-07-17T08:54:13.485Z,2.67
2023-07-17T08:59:26.267Z,2.92
2023-07-17T09:04:33.133Z,2.97
2023-07-17T09:09:36.701Z,2.85
2023-07-17T09:14:42.023Z,3.40
2023-07-17T09:19:49.192Z,2.83
2023-07-17T09:24:58.159Z,2.88
2023-07-17T09:30:10.839Z,2.55
2023-07-17T09:35:15.166Z,2.40
2023-07-17T09:40:19.988Z,2.70
2023-07-17T09:45:26.197Z,2.70
2023-07-17T09:50:37.521Z,2.75
2023-07-17T09:55:42.936Z,2.60
2023-07-17T10:00:51.269Z,2.90
2023-07-17T10:05:59.763Z,2.50
2023-07-17T10:11:06.885Z,2.60
2023-07-17T10:16:23.765Z,2.72
2023-07-17T10:21:28.996Z,2.50
2023-07-17T10:26:33.453Z,2.97
2023-07-17T10:31:50.633Z,3.25
2023-07-17T10:36:54.141Z,3.03
2023-07-17T10:41:57.625Z,3.40
2023-07-17T10:47:02.424Z,3.40
2023-07-17T10:52:08.200Z,2.83
2023-07-17T10:57:12.085Z,3.17
2023-07-17T11:02:18.052Z,3.17
2023-07-17T11:07:22.497Z,2.83
2023-07-17T11:12:27.790Z,2.97
2023-07-17T11:17:34.408Z,2.88
2023-07-17T11:22:42.094Z,2.97
2023-07-17T11:27:48.107Z,3.10
2023-07-17T11:33:10.727Z,2.95
2023-07-17T11:38:16.566Z,3.10
2023-07-17T11:43:32.133Z,3.30
2023-07-17T11:48:40.462Z,3.22
2023-07-17T11:53:54.973Z,3.40
2023-07-17T11:58:58.349Z,3.03
2023-07-17T12:04:21.658Z,3.15
2023-07-17T12:09:25.738Z,3.10
2023-07-17T12:14:30.301Z,2.92
2023-07-17T12:19:35.175Z,3.00
2023-07-17T12:24:39.581Z,3.30
2023-07-17T12:29:43.021Z,3.17
2023-07-17T12:34:50.659Z,3.40
2023-07-17T12:39:55.476Z,3.40
2023-07-17T12:45:01.006Z,2.92
2023-07-17T12:50:06.777Z,3.08
2023-07-17T12:55:11.123Z,3.25
2023-07-17T13:00:15.498Z,3.67
2023-07-17T13:05:21.460Z,3.33
2023-07-17T13:10:25.163Z,3.38
2023-07-17T13:15:32.021Z,3.33
2023-07-17T13:20:37.008Z,3.85
2023-07-17T13:25:43.542Z,3.20
2023-07-17T13:31:03.535Z,3.15
2023-07-17T13:36:12.859Z,3.10
2023-07-17T13:42:00.672Z,3.15
2023-07-17T13:47:17.209Z,3.40
2023-07-17T13:52:25.836Z,3.35
2023-07-17T13:57:30.265Z,3.20
2023-07-17T14:02:40.698Z,3.40
2023-07-17T14:07:47.868Z,3.67
2023-07-17T14:12:56.389Z,3.53
2023-07-17T14:18:01.624Z,3.35
2023-07-17T14:23:27.281Z,3.80
2023-07-17T14:28:42.741Z,3.25
2023-07-17T14:34:30.226Z,3.67
2023-07-17T14:39:52.492Z,4.03
2023-07-17T14:44:57.751Z,3.88
2023-07-17T14:50:08.388Z,3.78
2023-07-17T14:55:13.213Z,3.78
2023-07-17T15:00:17.618Z,3.10
2023-07-17T15:05:21.682Z,3.33
2023-07-17T15:10:27.651Z,4.10
2023-07-17T15:15:33.426Z,3.38
2023-07-17T15:20:37.050Z,2.97
2023-07-17T15:25:43.990Z,3.72
2023-07-17T15:30:49.584Z,3.78
2023-07-17T15:35:53.039Z,4.03
2023-07-17T15:40:59.264Z,3.95
2023-07-17T15:46:04.832Z,4.05
2023-07-17T15:51:08.397Z,3.40
2023-07-17T15:56:15.527Z,3.50
2023-07-17T16:01:20.334Z,3.60
2023-07-17T16:06:30.713Z,3.67
2023-07-17T16:12:01.348Z,3.53
2023-07-17T16:17:10.651Z,3.60
2023-07-17T16:22:16.179Z,3.63
2023-07-17T16:27:22.015Z,3.50
2023-07-17T16:32:25.668Z,3.83
2023-07-17T16:37:29.059Z,4.00
2023-07-17T16:42:33.940Z,4.10
2023-07-17T16:47:37.412Z,3.92
2023-07-17T16:52:40.906Z,4.57
2023-07-17T16:57:45.789Z,4.05
2023-07-17T17:02:50.295Z,3.95
2023-07-17T17:07:53.911Z,3.63
2023-07-17T17:12:58.901Z,4.15
2023-07-17T17:18:05.859Z,4.15
2023-07-17T17:23:11.525Z,4.40
2023-07-17T17:28:17.353Z,4.15
2023-07-17T17:33:22.954Z,3.30
2023-07-17T17:38:26.632Z,3.40
2023-07-17T17:43:31.475Z,3.78
2023-07-17T17:48:35.055Z,3.75
2023-07-17T17:53:38.560Z,3.75
2023-07-17T17:58:43.448Z,3.42
2023-07-17T18:03:53.793Z,3.53
2023-07-17T18:08:57.564Z,3.53
2023-07-17T18:14:09.332Z,3.30
2023-07-17T18:19:14.870Z,3.25
2023-07-17T18:24:18.296Z,3.05
2023-07-17T18:29:23.088Z,3.25
2023-07-17T18:34:27.669Z,3.03
2023-07-17T18:39:31.160Z,2.80
2023-07-17T18:44:37.262Z,2.92
2023-07-17T18:49:42.655Z,2.90
2023-07-17T18:54:46.379Z,2.95
2023-07-17T18:59:51.245Z,3.00
2023-07-17T19:04:55.676Z,3.05
2023-07-17T19:10:01.149Z,3.10
2023-07-17T19:15:08.330Z,2.65
2023-07-17T19:20:14.532Z,2.90
2023-07-17T19:25:18.048Z,3.38
2023-07-17T19:30:24.495Z,2.80
2023-07-17T19:35:28.869Z,2.97
